Time;durP1;ratioP1;P1;durP2;ratioP2;P2;SDS_P1;SDS_P2;PMS_P1;PMS_P2;Temp;Humidity;BMP_temperature;BMP_pressure;BME280_temperature;BME280_humidity;BME280_pressure;Samples;Min_cycle;Max_cycle;Signal;HPM_P1;HPM_P2
2022/05/06 00:01:44;;;;;;;6.18;2.55;;;10.00;99.90;;;;;;5071572;28;20037;-69
2022/05/06 00:04:10;;;;;;;5.03;3.10;;;10.00;99.90;;;;;;5071894;28;20043;-69
2022/05/06 00:06:36;;;;;;;3.83;2.45;;;9.90;99.90;;;;;;5071516;28;20036;-69
2022/05/06 00:09:04;;;;;;;5.60;3.08;;;10.00;99.90;;;;;;5071525;28;20115;-69
2022/05/06 00:11:30;;;;;;;3.53;2.65;;;9.90;99.90;;;;;;5071411;28;20055;-68
2022/05/06 00:13:56;;;;;;;4.68;3.17;;;9.90;99.90;;;;;;5071410;28;20045;-68
2022/05/06 00:16:23;;;;;;;3.88;2.95;;;10.00;99.90;;;;;;5071758;28;20616;-69
2022/05/06 00:18:50;;;;;;;4.97;3.40;;;10.00;99.90;;;;;;5071526;28;20411;-68
2022/05/06 00:21:16;;;;;;;24.10;11.32;;;10.00;99.90;;;;;;5071391;28;20052;-68
2022/05/06 00:23:42;;;;;;;6.82;3.30;;;10.00;99.90;;;;;;5071359;28;20553;-68
2022/05/06 00:26:08;;;;;;;6.50;3.30;;;9.90;99.90;;;;;;5071183;28;20511;-68
2022/05/06 00:28:35;;;;;;;7.80;4.40;;;9.90;99.90;;;;;;5070966;28;20068;-69
2022/05/06 00:31:02;;;;;;;9.57;4.80;;;9.80;99.90;;;;;;5071033;28;20064;-69
2022/05/06 00:33:29;;;;;;;12.70;5.32;;;9.90;99.90;;;;;;5071246;28;20089;-69
2022/05/06 00:35:57;;;;;;;10.18;4.35;;;9.80;99.90;;;;;;5071153;28;20419;-69
2022/05/06 00:38:23;;;;;;;5.85;3.88;;;9.90;99.90;;;;;;5071303;28;20048;-69
2022/05/06 00:40:49;;;;;;;6.22;3.05;;;;;;;;;;5071095;28;20040;-69
2022/05/06 00:43:15;;;;;;;6.53;3.55;;;9.80;99.90;;;;;;5071167;28;20055;-69
2022/05/06 00:45:52;;;;;;;5.47;3.45;;;9.80;99.90;;;;;;5071294;28;20044;-68
2022/05/06 00:48:19;;;;;;;4.80;3.67;;;9.80;99.90;;;;;;5071146;28;20071;-68
2022/05/06 00:50:45;;;;;;;5.72;3.35;;;9.70;99.90;;;;;;5071167;28;20051;-68
2022/05/06 00:53:14;;;;;;;6.55;3.80;;;9.70;99.90;;;;;;5071123;28;20618;-68
2022/05/06 00:55:40;;;;;;;3.97;3.25;;;9.70;99.90;;;;;;5068412;28;20052;-68
2022/05/06 00:58:07;;;;;;;9.00;4.88;;;9.80;99.90;;;;;;5071038;28;20082;-69
2022/05/06 01:00:33;;;;;;;8.30;5.28;;;9.70;99.90;;;;;;5070874;28;20074;-68
2022/05/06 01:02:59;;;;;;;7.68;4.20;;;9.70;99.90;;;;;;5070925;28;20033;-69
2022/05/06 01:05:25;;;;;;;7.25;4.22;;;9.70;99.90;;;;;;5070895;28;20028;-68
2022/05/06 01:07:52;;;;;;;6.15;4.20;;;9.80;99.90;;;;;;5070738;28;20044;-68
2022/05/06 01:10:20;;;;;;;7.03;4.10;;;9.90;99.90;;;;;;5071833;28;20036;-68
2022/05/06 01:12:46;;;;;;;6.00;3.65;;;9.90;99.90;;;;;;5073098;28;20047;-69
2022/05/06 01:15:28;;;;;;;6.50;4.60;;;9.90;99.90;;;;;;5075605;28;20119;-68
2022/05/06 01:17:56;;;;;;;5.15;3.72;;;10.00;99.90;;;;;;5075631;28;20542;-68
2022/05/06 01:20:23;;;;;;;6.18;4.60;;;9.90;99.90;;;;;;5075639;28;20029;-69
2022/05/06 01:22:51;;;;;;;6.40;3.80;;;9.90;99.90;;;;;;5075740;28;20064;-68
2022/05/06 01:25:18;;;;;;;6.20;4.10;;;9.80;99.90;;;;;;5076091;28;20028;-69
2022/05/06 01:27:55;;;;;;;8.35;4.32;;;9.70;99.90;;;;;;5075803;28;20044;-69
2022/05/06 01:30:35;;;;;;;8.13;4.07;;;9.50;99.90;;;;;;5075167;28;20032;-68
2022/05/06 01:33:04;;;;;;;7.78;5.55;;;9.60;99.90;;;;;;5075298;28;20044;-69
2022/05/06 01:35:52;;;;;;;6.28;4.72;;;9.90;99.90;;;;;;5075444;28;20589;-68
2022/05/06 01:38:36;;;;;;;6.53;4.57;;;9.80;99.90;;;;;;5074948;28;20040;-69
2022/05/06 01:41:04;;;;;;;11.43;5.28;;;9.80;99.90;;;;;;5075293;28;20044;-69
2022/05/06 01:43:42;;;;;;;9.18;5.50;;;9.70;99.90;;;;;;5075242;28;20029;-69
2022/05/06 01:46:13;;;;;;;9.50;5.13;;;9.80;99.90;;;;;;5075698;28;20180;-69
2022/05/06 01:48:41;;;;;;;9.60;5.72;;;9.90;99.90;;;;;;5075261;28;20036;-69
2022/05/06 01:51:13;;;;;;;7.18;5.40;;;9.90;99.90;;;;;;5075314;28;20055;-69
2022/05/06 01:53:39;;;;;;;7.43;5.63;;;9.90;99.90;;;;;;5074987;28;20075;-69
2022/05/06 01:56:07;;;;;;;12.38;5.90;;;9.80;99.90;;;;;;5074827;28;20072;-68
2022/05/06 01:58:32;;;;;;;11.27;6.00;;;10.00;99.90;;;;;;5074909;28;20090;-69
2022/05/06 02:00:58;;;;;;;9.18;5.38;;;9.90;99.90;;;;;;5074875;28;20040;-68
2022/05/06 02:06:09;;;;;;;13.88;5.97;;;9.70;99.90;;;;;;5074797;28;20466;-68
2022/05/06 02:08:34;;;;;;;11.52;6.78;;;9.70;99.90;;;;;;5074448;28;20047;-68
2022/05/06 02:11:01;;;;;;;9.18;5.20;;;9.90;99.90;;;;;;5074890;28;20052;-69
2022/05/06 02:13:27;;;;;;;9.13;6.32;;;9.80;99.90;;;;;;5074845;28;20040;-68
2022/05/06 02:15:53;;;;;;;11.32;6.38;;;9.90;99.90;;;;;;5074706;28;20093;-68
2022/05/06 02:18:19;;;;;;;11.02;6.57;;;10.00;99.90;;;;;;5074528;28;20036;-69
2022/05/06 02:20:45;;;;;;;10.75;7.20;;;10.00;99.90;;;;;;5074183;28;20690;-69
2022/05/06 02:23:11;;;;;;;11.07;7.25;;;10.10;99.90;;;;;;5074376;28;20082;-68
2022/05/06 02:25:38;;;;;;;10.90;6.80;;;10.10;99.90;;;;;;5073492;28;20029;-68
2022/05/06 02:28:04;;;;;;;13.27;7.95;;;10.10;99.90;;;;;;5074371;28;20037;-68
2022/05/06 02:33:15;;;;;;;10.93;7.65;;;10.10;99.90;;;;;;5074031;28;20040;-69
2022/05/06 02:35:44;;;;;;;15.73;6.60;;;10.10;99.90;;;;;;5074144;28;20525;-68
2022/05/06 02:38:11;;;;;;;9.27;6.93;;;10.10;99.90;;;;;;5066075;28;20033;-69
2022/05/06 02:40:38;;;;;;;15.98;7.95;;;10.10;99.90;;;;;;5073794;28;20373;-69
2022/05/06 02:43:05;;;;;;;8.77;7.28;;;10.10;99.90;;;;;;5073911;28;20134;-69
2022/05/06 02:45:32;;;;;;;11.70;7.65;;;10.20;99.90;;;;;;5073795;28;20129;-69
2022/05/06 02:47:58;;;;;;;10.63;7.15;;;10.20;99.90;;;;;;5072444;28;20511;-68
2022/05/06 02:50:25;;;;;;;13.07;7.80;;;10.20;99.90;;;;;;5073896;28;20377;-68
2022/05/06 02:52:51;;;;;;;10.05;6.35;;;10.20;99.90;;;;;;5073835;28;20067;-69
2022/05/06 02:55:17;;;;;;;10.88;7.47;;;10.20;99.90;;;;;;5073519;28;20471;-68
2022/05/06 02:57:43;;;;;;;11.98;6.90;;;10.30;99.90;;;;;;5070139;28;20059;-69
2022/05/06 03:00:09;;;;;;;12.98;7.28;;;10.40;99.90;;;;;;5054111;28;20116;-69
2022/05/06 03:02:35;;;;;;;19.23;7.93;;;10.30;99.90;;;;;;5051888;28;20040;-68
2022/05/06 03:05:02;;;;;;;10.00;6.97;;;10.20;99.90;;;;;;5053701;28;20033;-69
2022/05/06 03:07:27;;;;;;;11.93;6.53;;;10.30;99.90;;;;;;5053593;28;20119;-68
2022/05/06 03:09:53;;;;;;;9.73;6.82;;;10.20;99.90;;;;;;5057282;28;20136;-68
2022/05/06 03:12:20;;;;;;;9.45;6.55;;;10.30;99.90;;;;;;5073586;28;20048;-69
2022/05/06 03:14:46;;;;;;;15.88;7.40;;;10.30;99.90;;;;;;5073269;28;20438;-68
2022/05/06 03:17:12;;;;;;;12.73;6.38;;;10.30;99.90;;;;;;5073174;28;20507;-69
2022/05/06 03:19:38;;;;;;;10.90;6.50;;;10.20;99.90;;;;;;5073170;28;20039;-68
2022/05/06 03:22:06;;;;;;;9.75;6.35;;;10.20;99.90;;;;;;5073252;28;20123;-68
2022/05/06 03:24:32;;;;;;;11.48;6.22;;;10.20;99.90;;;;;;5073534;28;20132;-69
2022/05/06 03:26:58;;;;;;;8.75;6.25;;;10.10;99.90;;;;;;5073503;28;20119;-69
2022/05/06 03:29:24;;;;;;;10.65;6.00;;;10.20;99.90;;;;;;5073330;28;20064;-68
2022/05/06 03:31:51;;;;;;;9.30;6.50;;;10.10;99.90;;;;;;5073304;28;20457;-68
2022/05/06 03:34:17;;;;;;;6.93;5.35;;;10.10;99.90;;;;;;5073229;28;20036;-68
2022/05/06 03:36:44;;;;;;;10.23;6.93;;;10.10;99.90;;;;;;5072703;28;20048;-68
2022/05/06 03:39:10;;;;;;;11.30;6.55;;;10.00;99.90;;;;;;5073304;28;20041;-68
2022/05/06 03:41:37;;;;;;;11.38;5.82;;;10.00;99.90;;;;;;5073174;28;20070;-68
2022/05/06 03:44:03;;;;;;;11.77;6.32;;;10.00;99.90;;;;;;5073077;28;20033;-68
2022/05/06 03:46:29;;;;;;;8.60;6.05;;;10.00;99.90;;;;;;5073133;28;20032;-69
2022/05/06 03:48:55;;;;;;;10.23;7.13;;;10.00;99.90;;;;;;5073022;28;20423;-69
2022/05/06 03:51:21;;;;;;;10.88;7.53;;;10.10;99.90;;;;;;5072980;28;20048;-68
2022/05/06 03:53:51;;;;;;;12.50;8.05;;;10.00;99.90;;;;;;5073126;28;20442;-68
2022/05/06 03:56:18;;;;;;;13.43;7.53;;;10.10;99.90;;;;;;5073004;28;20088;-69
2022/05/06 03:58:44;;;;;;;11.80;8.10;;;10.00;99.90;;;;;;5072955;28;20395;-69
2022/05/06 04:01:10;;;;;;;14.48;8.60;;;10.00;99.90;;;;;;5073131;28;20040;-70
2022/05/06 04:03:41;;;;;;;14.07;8.27;;;10.20;99.90;;;;;;5072841;28;20036;-68
2022/05/06 04:06:06;;;;;;;12.68;8.45;;;10.20;99.90;;;;;;5072700;28;20037;-69
2022/05/06 04:08:32;;;;;;;13.70;8.40;;;10.20;99.90;;;;;;5072628;28;20039;-69
2022/05/06 04:10:58;;;;;;;19.17;9.45;;;10.10;99.90;;;;;;5072489;28;20131;-68
2022/05/06 04:13:24;;;;;;;15.05;9.05;;;10.10;99.90;;;;;;5072637;28;20142;-68
2022/05/06 04:15:50;;;;;;;11.38;8.00;;;10.20;99.90;;;;;;5072821;28;20377;-68
2022/05/06 04:18:17;;;;;;;14.30;9.25;;;10.20;99.90;;;;;;5071519;28;20044;-69
2022/05/06 04:23:32;;;;;;;13.93;8.88;;;10.30;99.90;;;;;;5072791;28;20047;-69
2022/05/06 04:26:08;;;;;;;16.20;9.40;;;10.30;99.90;;;;;;5072570;28;20044;-69
2022/05/06 04:28:35;;;;;;;16.08;8.63;;;10.30;99.90;;;;;;5072618;28;20040;-69
2022/05/06 04:31:02;;;;;;;13.50;8.40;;;10.30;99.90;;;;;;5063218;28;20144;-69
2022/05/06 04:33:28;;;;;;;15.10;9.68;;;10.20;99.90;;;;;;5052705;28;20033;-68
2022/05/06 04:35:56;;;;;;;15.85;9.38;;;10.40;99.90;;;;;;5052854;28;20075;-69
2022/05/06 04:38:23;;;;;;;17.02;9.90;;;10.40;99.90;;;;;;5052512;28;20047;-68
2022/05/06 04:40:50;;;;;;;19.35;9.63;;;10.30;99.90;;;;;;5052419;28;20055;-68
2022/05/06 04:43:20;;;;;;;16.48;9.02;;;10.40;99.90;;;;;;5052395;28;20037;-69
2022/05/06 04:45:47;;;;;;;15.15;9.27;;;10.40;99.90;;;;;;5052251;28;20554;-69
2022/05/06 04:48:13;;;;;;;15.68;9.00;;;10.40;99.90;;;;;;5053582;28;20132;-69
2022/05/06 04:50:41;;;;;;;16.02;9.02;;;10.40;99.90;;;;;;5056079;28;20043;-68
2022/05/06 04:53:09;;;;;;;20.00;9.18;;;10.40;99.90;;;;;;5056114;28;20516;-68
2022/05/06 04:55:38;;;;;;;14.50;8.88;;;10.50;99.90;;;;;;5056213;28;20128;-69
2022/05/06 04:58:04;;;;;;;15.55;9.50;;;10.40;99.90;;;;;;5056575;28;20033;-69
2022/05/06 05:00:31;;;;;;;14.57;8.32;;;10.60;99.90;;;;;;5055938;28;20041;-68
2022/05/06 05:02:57;;;;;;;11.50;8.32;;;10.50;99.90;;;;;;5055934;28;20043;-69
2022/05/06 05:05:24;;;;;;;18.13;8.85;;;10.50;99.90;;;;;;5056030;28;20041;-68
2022/05/06 05:07:50;;;;;;;12.57;8.45;;;10.40;99.90;;;;;;5056087;28;20087;-68
2022/05/06 05:10:16;;;;;;;14.82;8.27;;;10.40;99.90;;;;;;5055940;28;20056;-68
2022/05/06 05:12:42;;;;;;;17.38;8.73;;;10.50;99.90;;;;;;5056059;28;20557;-68
2022/05/06 05:15:08;;;;;;;18.00;8.38;;;10.50;99.90;;;;;;5055877;28;20102;-68
2022/05/06 05:17:34;;;;;;;10.65;7.53;;;10.50;99.90;;;;;;5055893;28;20063;-68
2022/05/06 05:20:00;;;;;;;16.17;7.60;;;10.60;99.90;;;;;;5055818;28;20496;-68
2022/05/06 05:22:26;;;;;;;16.63;8.35;;;10.60;99.90;;;;;;5063188;28;20630;-68
2022/05/06 05:24:52;;;;;;;15.05;9.15;;;10.70;99.90;;;;;;5075617;28;20116;-69
2022/05/06 05:27:17;;;;;;;17.05;9.35;;;10.80;99.90;;;;;;5075531;28;20127;-68
2022/05/06 05:29:43;;;;;;;16.67;9.35;;;10.80;99.90;;;;;;5070019;28;20048;-68
2022/05/06 05:32:10;;;;;;;14.32;8.85;;;10.90;99.90;;;;;;5067800;28;20040;-70
2022/05/06 05:34:36;;;;;;;14.60;8.18;;;11.00;99.90;;;;;;5070483;28;20079;-67
2022/05/06 05:37:02;;;;;;;16.05;9.40;;;11.10;99.90;;;;;;5056474;28;20036;-68
2022/05/06 05:39:28;;;;;;;14.43;8.13;;;11.20;99.90;;;;;;5054970;28;20567;-68
2022/05/06 05:41:54;;;;;;;16.23;8.68;;;11.20;99.90;;;;;;5055183;28;20124;-68
2022/05/06 05:49:49;;;;;;;13.98;9.13;;;11.50;99.90;;;;;;5054964;28;20538;-70
2022/05/06 05:52:14;;;;;;;15.85;8.23;;;11.60;99.90;;;;;;5054915;28;20045;-68
2022/05/06 05:54:40;;;;;;;14.65;8.45;;;11.70;99.90;;;;;;5055186;28;20041;-68
2022/05/06 05:57:07;;;;;;;12.98;8.00;;;11.80;99.90;;;;;;5055155;28;20049;-68
2022/05/06 05:59:35;;;;;;;18.50;7.97;;;11.70;99.90;;;;;;5060608;28;20040;-70
2022/05/06 06:02:04;;;;;;;16.50;7.85;;;11.80;99.90;;;;;;5072209;28;20048;-69
2022/05/06 06:04:30;;;;;;;14.85;8.13;;;12.10;99.90;;;;;;5072575;28;20500;-69
2022/05/06 06:06:56;;;;;;;14.45;8.40;;;12.00;99.90;;;;;;5072727;28;20039;-68
2022/05/06 06:09:22;;;;;;;10.95;8.23;;;12.10;99.90;;;;;;5073129;28;20071;-69
2022/05/06 06:11:51;;;;;;;14.23;8.13;;;12.20;99.90;;;;;;5070755;28;20118;-68
2022/05/06 06:14:17;;;;;;;13.00;7.30;;;12.30;99.90;;;;;;5066183;28;20044;-69
2022/05/06 06:16:44;;;;;;;13.98;7.35;;;12.40;99.90;;;;;;5072286;28;20048;-69
2022/05/06 06:19:10;;;;;;;16.67;8.05;;;12.60;99.90;;;;;;5073623;28;20032;-68
2022/05/06 06:21:36;;;;;;;16.58;8.23;;;12.40;99.90;;;;;;5074904;28;20044;-68
2022/05/06 06:24:02;;;;;;;15.02;8.35;;;12.30;99.90;;;;;;5073481;28;20036;-68
2022/05/06 06:26:28;;;;;;;13.05;8.45;;;12.30;99.90;;;;;;5073137;28;20048;-68
2022/05/06 06:28:54;;;;;;;19.17;8.32;;;12.50;99.90;;;;;;5065100;28;20028;-69
2022/05/06 06:31:20;;;;;;;11.27;7.90;;;12.60;99.90;;;;;;5059323;28;20052;-68
2022/05/06 06:33:46;;;;;;;15.45;8.80;;;12.90;99.90;;;;;;5054431;28;20393;-69
2022/05/06 06:36:12;;;;;;;11.60;7.72;;;12.50;99.90;;;;;;5054449;28;20048;-70
2022/05/06 06:38:37;;;;;;;14.90;8.25;;;12.50;99.90;;;;;;5054298;28;20044;-69
2022/05/06 06:41:04;;;;;;;13.05;7.82;;;12.40;99.90;;;;;;5054183;28;20045;-69
2022/05/06 06:43:30;;;;;;;11.82;8.07;;;12.30;99.90;;;;;;5053130;28;20091;-68
2022/05/06 06:45:56;;;;;;;14.48;8.30;;;12.40;99.90;;;;;;5054188;28;20411;-68
2022/05/06 06:48:24;;;;;;;13.13;8.90;;;12.60;99.90;;;;;;5054057;28;20029;-68
2022/05/06 06:50:52;;;;;;;13.70;6.88;;;12.70;99.90;;;;;;5054249;28;20037;-68
2022/05/06 06:53:19;;;;;;;11.75;7.45;;;13.50;99.90;;;;;;5054207;28;20072;-68
2022/05/06 06:55:44;;;;;;;11.85;7.50;;;13.30;99.90;;;;;;5052649;28;20060;-68
2022/05/06 06:58:10;;;;;;;12.93;7.68;;;13.50;99.90;;;;;;5053757;28;20035;-68
2022/05/06 07:00:37;;;;;;;13.30;7.75;;;13.40;99.90;;;;;;5061041;28;20044;-68
2022/05/06 07:03:04;;;;;;;13.43;8.35;;;13.90;99.90;;;;;;5056954;28;20033;-69
2022/05/06 07:05:30;;;;;;;15.63;7.45;;;13.40;99.90;;;;;;5050758;28;20064;-69
2022/05/06 07:13:24;;;;;;;15.80;7.65;;;13.30;99.90;;;;;;5053806;28;20043;-68
2022/05/06 07:15:50;;;;;;;12.32;7.50;;;13.30;99.90;;;;;;5057346;28;20040;-69
2022/05/06 07:18:16;;;;;;;11.52;7.45;;;13.80;99.90;;;;;;5071120;28;20048;-71
2022/05/06 07:20:42;;;;;;;14.45;6.45;;;14.00;99.90;;;;;;5071559;28;20071;-71
2022/05/06 07:23:10;;;;;;;14.27;8.50;;;14.10;99.90;;;;;;5071582;28;20445;-71
2022/05/06 07:25:36;;;;;;;16.13;7.60;;;13.80;99.90;;;;;;5071221;28;20085;-71
2022/05/06 07:28:03;;;;;;;20.60;7.78;;;13.80;99.90;;;;;;5071407;28;20049;-70
2022/05/06 07:30:28;;;;;;;12.15;6.57;;;13.70;99.90;;;;;;5071425;28;20488;-69
2022/05/06 07:32:54;;;;;;;14.27;7.22;;;14.00;99.90;;;;;;5072706;28;20037;-71
2022/05/06 07:35:20;;;;;;;13.30;6.97;;;14.20;99.90;;;;;;5071282;28;20045;-70
2022/05/06 07:37:46;;;;;;;14.77;7.22;;;13.80;99.90;;;;;;5070697;28;20110;-70
2022/05/06 07:40:12;;;;;;;12.70;7.43;;;13.90;99.90;;;;;;5072871;28;20067;-70
2022/05/06 07:42:38;;;;;;;11.93;7.30;;;13.50;99.90;;;;;;5071343;28;20048;-70
2022/05/06 07:45:05;;;;;;;13.80;8.23;;;13.60;99.90;;;;;;5070777;28;20517;-70
2022/05/06 07:47:32;;;;;;;10.45;6.63;;;14.20;99.90;;;;;;5071046;28;20051;-70
2022/05/06 07:49:57;;;;;;;13.82;7.32;;;14.20;99.90;;;;;;5072229;28;20044;-70
2022/05/06 07:52:24;;;;;;;11.13;7.13;;;14.00;99.90;;;;;;5071588;28;20587;-69
2022/05/06 07:54:49;;;;;;;11.73;7.32;;;14.30;99.90;;;;;;5071372;28;20102;-71
2022/05/06 07:57:15;;;;;;;11.50;6.88;;;14.40;99.90;;;;;;5060615;28;20502;-71
2022/05/06 07:59:41;;;;;;;10.50;6.38;;;14.60;99.90;;;;;;5070843;28;20071;-71
2022/05/06 08:04:51;;;;;;;12.73;7.00;;;14.30;99.90;;;;;;5067204;28;20113;-68
2022/05/06 08:07:18;;;;;;;13.48;6.35;;;14.50;99.90;;;;;;5064061;28;20063;-69
2022/05/06 08:09:44;;;;;;;12.80;6.18;;;14.90;99.90;;;;;;5059290;28;20048;-69
2022/05/06 08:12:10;;;;;;;16.15;5.97;;;14.90;99.90;;;;;;5050511;28;20043;-69
2022/05/06 08:14:36;;;;;;;12.63;5.97;;;14.60;99.90;;;;;;5050414;28;20047;-69
2022/05/06 08:17:03;;;;;;;11.00;5.57;;;14.90;99.90;;;;;;5051677;28;20128;-69
2022/05/06 08:19:29;;;;;;;12.10;6.25;;;14.80;99.90;;;;;;5051372;28;20053;-69
2022/05/06 08:21:57;;;;;;;8.75;5.30;;;14.60;99.90;;;;;;5052503;28;20041;-68
2022/05/06 08:24:23;;;;;;;13.50;6.25;;;14.60;99.90;;;;;;5056037;28;20123;-69
2022/05/06 08:26:49;;;;;;;9.25;5.57;;;14.30;99.90;;;;;;5056883;28;20036;-68
2022/05/06 08:29:15;;;;;;;11.25;5.82;;;14.40;99.90;;;;;;5055569;28;20124;-69
2022/05/06 08:31:41;;;;;;;11.10;6.13;;;14.40;99.90;;;;;;5054625;28;20079;-68
2022/05/06 08:34:08;;;;;;;6.50;4.97;;;14.20;99.90;;;;;;5054723;28;20036;-69
2022/05/06 08:36:39;;;;;;;12.90;5.82;;;14.10;99.90;;;;;;5054627;28;20423;-69
2022/05/06 08:39:05;;;;;;;;;;;14.10;99.90;;;;;;5053669;28;20052;-69
2022/05/06 08:41:32;;;;;;;9.88;5.85;;;14.50;99.90;;;;;;5054825;28;19913;-69
2022/05/06 08:50:50;;;;;;;8.15;5.20;;;14.60;99.90;;;;;;5053726;28;20098;-69
2022/05/06 08:52:21;;;;;;;8.25;4.63;;;13.80;99.90;;;;;;5056371;28;20475;-69
2022/05/06 08:54:46;;;;;;;9.90;4.63;;;14.20;99.90;;;;;;5054356;28;20041;-69
2022/05/06 08:57:12;;;;;;;7.05;4.43;;;14.20;99.90;;;;;;5054260;28;20135;-69
2022/05/06 08:59:38;;;;;;;10.80;5.20;;;14.30;99.90;;;;;;5054435;28;20033;-70
2022/05/06 09:02:04;;;;;;;7.38;4.25;;;13.90;99.90;;;;;;5054236;28;20041;-69
2022/05/06 09:04:30;;;;;;;13.55;5.03;;;14.10;99.90;;;;;;5054022;28;20036;-69
2022/05/06 09:07:21;;;;;;;7.28;4.30;;;14.10;99.90;;;;;;5054150;28;20493;-68
2022/05/06 09:10:13;;;;;;;15.40;4.90;;;14.40;99.90;;;;;;5053753;28;20120;-69
2022/05/06 09:12:44;;;;;;;7.63;5.18;;;14.00;99.90;;;;;;5054067;28;20032;-69
2022/05/06 09:17:56;;;;;;;9.95;4.80;;;13.70;99.90;;;;;;5053677;28;20080;-68
2022/05/06 09:20:24;;;;;;;10.02;5.68;;;14.20;99.90;;;;;;5054043;28;20462;-69
2022/05/06 09:22:53;;;;;;;11.80;6.13;;;14.30;99.90;;;;;;5058783;28;20123;-69
2022/05/06 09:25:49;;;;;;;10.20;5.93;;;14.80;99.90;;;;;;5074834;28;20040;-69
2022/05/06 09:28:30;;;;;;;8.57;5.00;;;14.80;99.90;;;;;;5075625;28;20079;-69
2022/05/06 09:30:59;;;;;;;;;;;14.60;99.90;;;;;;5076128;28;20055;-69
2022/05/06 09:33:26;;;;;;;9.18;5.43;;;14.10;99.90;;;;;;5086210;28;19911;-69
2022/05/06 09:35:52;;;;;;;9.10;5.90;;;14.10;99.90;;;;;;5094075;28;20075;-68
2022/05/06 09:38:17;;;;;;;10.95;4.65;;;14.20;99.90;;;;;;5095211;28;20476;-69
2022/05/06 09:40:43;;;;;;;7.22;4.95;;;14.30;99.90;;;;;;5093517;28;20527;-68
2022/05/06 09:43:17;;;;;;;12.48;5.32;;;14.60;99.90;;;;;;5093781;28;20430;-71
2022/05/06 09:45:44;;;;;;;7.75;4.63;;;14.10;99.90;;;;;;5094837;28;20040;-68
2022/05/06 09:48:13;;;;;;;6.80;4.80;;;14.20;99.90;;;;;;5093759;28;20036;-70
2022/05/06 09:50:48;;;;;;;12.38;5.22;;;14.40;99.90;;;;;;5095154;28;20043;-68
2022/05/06 09:53:21;;;;;;;7.63;4.38;;;14.70;99.90;;;;;;5094932;28;20028;-70
2022/05/06 09:55:48;;;;;;;8.32;4.90;;;14.60;99.90;;;;;;5093541;28;20138;-69
2022/05/06 09:58:15;;;;;;;9.00;4.85;;;14.40;99.90;;;;;;5093281;28;20433;-69
2022/05/06 10:00:42;;;;;;;7.57;4.45;;;14.60;99.90;;;;;;5093380;28;20139;-70
2022/05/06 10:03:12;;;;;;;11.05;5.13;;;15.00;99.90;;;;;;5093364;28;20560;-71
2022/05/06 10:05:38;;;;;;;7.30;4.05;;;14.90;99.90;;;;;;5093328;28;20945;-70
2022/05/06 10:08:19;;;;;;;11.18;4.40;;;15.30;99.90;;;;;;5093500;28;20121;-71
2022/05/06 10:10:53;;;;;;;14.20;4.63;;;15.60;99.90;;;;;;5093876;28;20071;-71
2022/05/06 10:13:22;;;;;;;5.82;4.30;;;15.00;99.90;;;;;;5092697;28;20039;-71
2022/05/06 10:15:53;;;;;;;7.20;4.05;;;15.30;99.90;;;;;;5092643;28;20541;-70
2022/05/06 10:18:32;;;;;;;4.05;3.35;;;14.80;99.90;;;;;;5092752;28;20036;-71
2022/05/06 10:20:59;;;;;;;7.43;3.85;;;15.20;99.90;;;;;;5079038;28;20496;-70
2022/05/06 10:24:04;;;;;;;9.48;3.80;;;15.30;99.90;;;;;;5061706;28;20075;-70
2022/05/06 10:26:33;;;;;;;5.72;3.78;;;15.50;99.90;;;;;;5052772;28;20131;-69
2022/05/06 10:34:33;;;;;;;8.40;4.25;;;15.50;99.90;;;;;;5053891;28;20586;-70
2022/05/06 10:37:02;;;;;;;12.73;4.07;;;15.70;99.90;;;;;;5054067;28;20082;-70
2022/05/06 10:39:37;;;;;;;8.48;4.25;;;15.90;99.90;;;;;;5053287;28;20043;-67
2022/05/06 10:42:11;;;;;;;6.60;3.63;;;15.30;99.90;;;;;;5051183;28;20037;-70
2022/05/06 10:44:41;;;;;;;5.75;3.38;;;15.70;99.90;;;;;;5052204;28;20082;-69
2022/05/06 10:47:12;;;;;;;4.97;3.60;;;16.30;99.90;;;;;;5051255;28;20522;-70
2022/05/06 10:49:38;;;;;;;9.27;3.53;;;16.40;99.90;;;;;;5051946;28;20037;-70
2022/05/06 10:52:20;;;;;;;7.90;3.45;;;16.30;99.90;;;;;;5061550;28;20514;-69
2022/05/06 10:54:48;;;;;;;6.85;3.42;;;16.70;99.90;;;;;;5052440;28;20041;-70
2022/05/06 10:57:14;;;;;;;7.03;3.38;;;17.00;99.90;;;;;;5051170;28;20053;-70
2022/05/06 11:00:03;;;;;;;6.35;3.30;;;16.90;99.90;;;;;;5051777;28;20041;-70
2022/05/06 11:02:34;;;;;;;5.75;2.95;;;17.20;99.90;;;;;;5051672;28;20048;-69
2022/05/06 11:05:02;;;;;;;4.97;2.75;;;17.30;99.90;;;;;;5066983;28;20040;-72
2022/05/06 11:07:30;;;;;;;5.47;3.45;;;16.50;99.90;;;;;;5051440;28;20041;-71
2022/05/06 11:09:59;;;;;;;5.40;3.28;;;15.70;99.90;;;;;;5051349;28;20140;-71
2022/05/06 11:12:33;;;;;;;6.57;3.65;;;15.50;99.90;;;;;;5051215;28;20443;-68
2022/05/06 11:15:01;;;;;;;4.38;3.03;;;15.30;99.90;;;;;;5066875;28;20888;-70
2022/05/06 11:17:27;;;;;;;5.38;3.80;;;15.40;99.90;;;;;;5051590;28;20129;-70
2022/05/06 11:19:54;;;;;;;8.52;4.43;;;15.30;99.90;;;;;;5051697;28;20480;-69
2022/05/06 11:22:23;;;;;;;9.70;3.53;;;15.20;99.90;;;;;;5062088;28;20059;-69
2022/05/06 11:24:49;;;;;;;7.75;3.75;;;15.20;99.90;;;;;;5071704;28;20032;-70
2022/05/06 11:27:19;;;;;;;7.57;3.55;;;15.10;99.90;;;;;;5090308;28;20039;-70
2022/05/06 11:29:59;;;;;;;5.30;3.43;;;15.20;99.90;;;;;;5093273;28;20475;-69
2022/05/06 11:32:27;;;;;;;5.70;3.83;;;15.10;99.90;;;;;;5093334;28;20094;-67
2022/05/06 11:35:00;;;;;;;7.10;3.80;;;15.20;99.90;;;;;;5091785;28;20032;-71
2022/05/06 11:37:32;;;;;;;5.45;3.85;;;15.20;99.90;;;;;;5091233;28;20044;-69
2022/05/06 11:42:42;;;;;;;6.30;4.07;;;15.60;99.90;;;;;;5070667;28;20166;-70
2022/05/06 11:48:06;;;;;;;7.03;3.83;;;16.30;99.90;;;;;;5069829;28;20059;-73
2022/05/06 11:50:36;;;;;;;9.20;4.78;;;16.20;99.90;;;;;;5071188;28;20040;-70
2022/05/06 11:53:08;;;;;;;9.00;4.70;;;16.30;99.90;;;;;;5070993;28;20498;-71
2022/05/06 11:55:36;;;;;;;8.88;5.30;;;16.10;99.90;;;;;;5070140;28;20500;-72
2022/05/06 11:58:05;;;;;;;9.32;4.97;;;15.90;99.90;;;;;;5068553;28;20033;-72
2022/05/06 12:00:31;;;;;;;13.55;4.82;;;15.90;99.90;;;;;;5070953;28;20063;-71
2022/05/06 12:03:03;;;;;;;8.52;5.55;;;15.90;99.90;;;;;;5070789;28;20033;-71
2022/05/06 12:05:29;;;;;;;11.18;5.78;;;15.90;99.90;;;;;;5070456;28;20044;-71
2022/05/06 12:07:54;;;;;;;8.95;4.95;;;16.30;99.90;;;;;;5070448;28;20036;-73
2022/05/06 12:10:26;;;;;;;10.50;6.25;;;16.60;99.90;;;;;;5069943;28;20058;-73
2022/05/06 12:13:06;;;;;;;19.02;6.40;;;16.60;99.90;;;;;;5070983;28;20039;-71
2022/05/06 12:15:40;;;;;;;7.90;5.13;;;16.50;99.90;;;;;;5070772;28;20079;-71
2022/05/06 12:18:11;;;;;;;9.48;5.78;;;16.60;99.90;;;;;;5070851;28;20527;-72
2022/05/06 12:20:38;;;;;;;15.18;6.55;;;16.80;99.90;;;;;;5070816;28;20044;-71
2022/05/06 12:23:05;;;;;;;12.52;5.40;;;16.60;99.90;;;;;;5072446;28;20047;-72
2022/05/06 12:25:35;;;;;;;10.40;6.47;;;16.20;99.90;;;;;;5072099;28;20047;-72
2022/05/06 12:28:08;;;;;;;9.82;5.80;;;15.90;99.90;;;;;;5070539;28;20123;-71
2022/05/06 12:30:35;;;;;;;9.85;5.90;;;16.10;99.90;;;;;;5069472;28;20047;-72
2022/05/06 12:33:09;;;;;;;9.50;5.68;;;16.10;99.90;;;;;;5072113;28;20550;-72
2022/05/06 12:36:01;;;;;;;8.00;6.13;;;16.10;99.90;;;;;;5070680;28;20052;-73
2022/05/06 12:38:47;;;;;;;6.78;5.28;;;15.90;99.90;;;;;;5070567;28;20044;-71
2022/05/06 12:41:23;;;;;;;9.23;5.65;;;16.30;99.90;;;;;;5070480;28;20063;-71
2022/05/06 12:43:50;;;;;;;11.23;5.80;;;16.30;99.90;;;;;;5070095;28;20523;-71
2022/05/06 12:46:27;;;;;;;7.95;4.97;;;16.10;99.90;;;;;;5072729;28;20036;-71
2022/05/06 12:51:42;;;;;;;9.07;4.60;;;15.90;99.90;;;;;;5072017;28;20400;-70
2022/05/06 12:54:09;;;;;;;6.00;4.38;;;16.10;99.90;;;;;;5071965;28;20033;-71
2022/05/06 12:56:35;;;;;;;7.03;5.00;;;16.80;99.90;;;;;;5071182;28;20506;-69
2022/05/06 12:59:02;;;;;;;7.65;4.20;;;16.60;99.90;;;;;;5072551;28;20131;-70
2022/05/06 13:01:28;;;;;;;7.60;4.63;;;16.50;99.90;;;;;;5071847;28;20048;-70
2022/05/06 13:03:53;;;;;;;8.75;4.43;;;16.80;99.90;;;;;;5072456;28;20399;-70
2022/05/06 13:06:19;;;;;;;5.70;4.28;;;17.00;99.90;;;;;;5072388;28;20443;-69
2022/05/06 13:08:45;;;;;;;8.82;4.97;;;16.80;99.90;;;;;;5072898;28;20488;-69
2022/05/06 13:11:11;;;;;;;8.25;5.40;;;16.80;99.90;;;;;;5073422;28;20119;-68
2022/05/06 13:13:37;;;;;;;9.57;5.65;;;16.90;99.90;;;;;;5061312;28;20068;-69
2022/05/06 13:16:03;;;;;;;9.43;4.78;;;17.00;99.90;;;;;;5056361;28;20056;-68
2022/05/06 13:18:30;;;;;;;12.23;5.85;;;16.90;99.90;;;;;;5073293;28;20041;-68
2022/05/06 13:20:56;;;;;;;7.07;4.60;;;16.70;99.90;;;;;;5073518;28;20039;-68
2022/05/06 13:23:22;;;;;;;7.32;4.47;;;16.90;99.90;;;;;;5073883;28;20040;-69
2022/05/06 13:25:48;;;;;;;7.95;4.18;;;17.10;99.90;;;;;;5073095;28;20075;-69
2022/05/06 13:28:15;;;;;;;11.77;5.45;;;17.00;99.90;;;;;;5073112;28;20036;-69
2022/05/06 13:30:41;;;;;;;9.95;5.07;;;16.80;99.90;;;;;;5066372;28;20500;-69
2022/05/06 13:33:07;;;;;;;7.90;4.68;;;16.70;99.90;;;;;;5053257;28;20086;-68